Time;durP1;ratioP1;P1;durP2;ratioP2;P2;SDS_P1;SDS_P2;PMS_P1;PMS_P2;Temp;Humidity;BMP_temperature;BMP_pressure;BME280_temperature;BME280_humidity;BME280_pressure;Samples;Min_cycle;Max_cycle;Signal;HPM_P1;HPM_P2
2021/04/25 10:12:31;;;;;;;12.60;8.80;;;;;;;;;;5085607;28;20676;-80
2021/04/25 10:14:57;;;;;;;9.77;7.50;;;;;;;;;;5083750;28;20468;-80
2021/04/25 10:17:23;;;;;;;9.23;7.27;;;;;;;;;;5082413;28;20938;-80
2021/04/25 10:19:50;;;;;;;8.87;6.63;;;;;;;;;;5084300;28;20448;-79
2021/04/25 10:22:19;;;;;;;16.63;8.47;;;;;;;;;;5081095;28;21012;-81
2021/04/25 10:24:45;;;;;;;9.67;7.10;;;;;;;;;;5084242;28;20445;-79
2021/04/25 10:27:15;;;;;;;9.83;7.63;;;;;;;;;;5082594;28;20459;-79
2021/04/25 10:29:45;;;;;;;14.87;7.43;;;;;;;;;;5081545;28;20439;-79
2021/04/25 10:32:11;;;;;;;9.60;7.20;;;;;;;;;;5086209;28;20477;-79
2021/04/25 10:34:37;;;;;;;12.07;6.60;;;;;;;;;;5076396;28;20467;-77
2021/04/25 10:37:08;;;;;;;7.83;7.03;;;;;;;;;;5077343;28;20446;-80
2021/04/25 10:39:50;;;;;;;8.73;7.70;;;;;;;;;;5080185;28;20441;-78
2021/04/25 10:42:20;;;;;;;10.90;8.00;;;;;;;;;;5080645;28;20532;-79
2021/04/25 10:44:58;;;;;;;10.33;7.60;;;;;;;;;;5075033;28;20476;-79
2021/04/25 10:47:24;;;;;;;10.03;7.17;;;;;;;;;;5082910;28;20773;-76
2021/04/25 10:49:51;;;;;;;12.83;7.57;;;;;;;;;;5084147;28;20452;-77
2021/04/25 10:52:23;;;;;;;9.63;7.43;;;;;;;;;;5084188;28;20499;-77
2021/04/25 10:55:08;;;;;;;7.27;6.47;;;;;;;;;;5082772;28;20477;-77
2021/04/25 10:57:34;;;;;;;8.33;6.33;;;;;;;;;;5082417;28;20536;-79
2021/04/25 11:00:19;;;;;;;9.13;7.00;;;;;;;;;;5080552;28;20524;-79
2021/04/25 11:02:48;;;;;;;12.53;6.87;;;;;;;;;;5083103;28;20787;-79
2021/04/25 11:05:16;;;;;;;8.57;7.53;;;;;;;;;;5082701;28;20477;-80
2021/04/25 11:07:43;;;;;;;11.47;8.20;;;;;;;;;;5082993;28;20511;-79
2021/04/25 11:10:09;;;;;;;10.60;7.63;;;;;;;;;;5082571;28;20494;-79
2021/04/25 11:12:39;;;;;;;8.70;7.90;;;;;;;;;;5082490;28;20776;-78
2021/04/25 11:15:06;;;;;;;8.47;7.30;;;;;;;;;;5081529;28;20441;-80
2021/04/25 11:17:32;;;;;;;8.00;7.00;;;;;;;;;;5081347;28;20441;-78
2021/04/25 11:19:59;;;;;;;6.93;6.20;;;;;;;;;;5083403;28;20429;-79
2021/04/25 11:22:48;;;;;;;7.67;5.70;;;;;;;;;;5079481;28;20441;-79
2021/04/25 11:25:27;;;;;;;6.70;6.00;;;;;;;;;;5079837;28;20453;-79
2021/04/25 11:27:53;;;;;;;7.43;6.73;;;;;;;;;;5074707;28;20438;-78
2021/04/25 11:30:42;;;;;;;6.40;5.70;;;;;;;;;;5068695;28;20448;-79
2021/04/25 11:33:27;;;;;;;7.33;6.47;;;;;;;;;;5067909;28;20449;-79
2021/04/25 11:35:53;;;;;;;7.20;5.80;;;;;;;;;;5066406;28;20529;-79
2021/04/25 11:38:20;;;;;;;8.33;6.23;;;;;;;;;;5069567;28;20963;-80
2021/04/25 11:40:46;;;;;;;6.13;5.37;;;;;;;;;;5068868;28;20468;-78
2021/04/25 11:43:12;;;;;;;7.63;6.03;;;;;;;;;;5067586;28;20445;-79
2021/04/25 11:45:38;;;;;;;7.37;5.20;;;;;;;;;;5067773;28;20449;-78
2021/04/25 11:48:08;;;;;;;6.70;5.30;;;;;;;;;;5068250;28;20520;-81
2021/04/25 11:50:36;;;;;;;8.70;5.97;;;;;;;;;;5069031;28;20482;-78
2021/04/25 11:53:02;;;;;;;6.87;5.93;;;;;;;;;;5069553;28;20465;-78
2021/04/25 11:55:29;;;;;;;5.93;5.33;;;;;;;;;;5067686;28;20511;-79
2021/04/25 11:57:55;;;;;;;11.10;5.63;;;;;;;;;;5067624;28;20453;-77
2021/04/25 12:00:31;;;;;;;6.63;5.40;;;;;;;;;;5064851;28;20445;-79
2021/04/25 12:02:59;;;;;;;5.90;5.27;;;;;;;;;;5061106;28;20445;-79
2021/04/25 12:05:27;;;;;;;6.27;5.27;;;;;;;;;;5066201;28;20454;-80
2021/04/25 12:07:55;;;;;;;6.90;5.80;;;;;;;;;;5068838;28;20474;-79
2021/04/25 12:10:37;;;;;;;8.00;6.30;;;;;;;;;;5067202;28;20440;-78
2021/04/25 12:13:13;;;;;;;7.77;5.67;;;;;;;;;;5067451;28;20487;-79
2021/04/25 12:15:39;;;;;;;4.97;4.50;;;;;;;;;;5068404;28;20433;-78
2021/04/25 12:18:06;;;;;;;5.87;4.10;;;;;;;;;;5067775;28;20434;-78
2021/04/25 12:20:32;;;;;;;8.00;4.67;;;;;;;;;;5064884;28;20522;-78
2021/04/25 12:22:59;;;;;;;7.73;5.83;;;;;;;;;;5061697;28;20735;-78
2021/04/25 12:25:27;;;;;;;6.90;5.37;;;;;;;;;;5067322;28;20441;-78
2021/04/25 12:27:58;;;;;;;6.63;4.63;;;;;;;;;;5067835;28;20442;-77
2021/04/25 12:30:25;;;;;;;9.90;4.43;;;;;;;;;;5068457;28;20470;-78
2021/04/25 12:33:10;;;;;;;5.47;4.00;;;;;;;;;;5065578;28;20443;-80
2021/04/25 12:35:47;;;;;;;4.27;3.87;;;;;;;;;;5051822;28;20454;-79
2021/04/25 12:38:15;;;;;;;6.30;3.83;;;;;;;;;;5056835;28;20565;-78
2021/04/25 12:40:42;;;;;;;3.57;3.27;;;;;;;;;;5059609;28;20465;-79
2021/04/25 12:43:08;;;;;;;5.50;3.90;;;;;;;;;;5069353;28;20832;-79
2021/04/25 12:45:34;;;;;;;4.13;3.73;;;;;;;;;;5057565;28;20516;-79
2021/04/25 12:48:20;;;;;;;6.43;3.87;;;;;;;;;;5063641;28;20936;-78
2021/04/25 12:51:05;;;;;;;7.13;3.87;;;;;;;;;;5067497;28;20975;-79
2021/04/25 12:53:31;;;;;;;5.77;3.93;;;;;;;;;;5065099;28;20445;-78
2021/04/25 12:55:57;;;;;;;4.17;3.67;;;;;;;;;;5064493;28;20445;-80
2021/04/25 12:58:23;;;;;;;5.17;4.40;;;;;;;;;;5064263;28;20848;-79
2021/04/25 13:00:49;;;;;;;5.03;4.20;;;;;;;;;;5066566;28;20477;-78
2021/04/25 13:03:36;;;;;;;4.50;4.10;;;;;;;;;;5066494;28;20594;-78
2021/04/25 13:06:02;;;;;;;6.93;3.43;;;;;;;;;;5068031;28;20429;-79
2021/04/25 13:08:34;;;;;;;4.57;3.90;;;;;;;;;;5066801;28;20460;-78
2021/04/25 13:11:00;;;;;;;4.80;3.97;;;;;;;;;;5064618;28;20486;-79
2021/04/25 13:13:26;;;;;;;3.17;2.87;;;;;;;;;;5064782;28;20452;-79
2021/04/25 13:15:52;;;;;;;5.07;3.43;;;;;;;;;;5066256;28;20433;-79
2021/04/25 13:18:18;;;;;;;3.93;3.57;;;;;;;;;;5066968;28;20449;-78
2021/04/25 13:20:47;;;;;;;4.30;3.43;;;;;;;;;;5066610;28;20940;-79
2021/04/25 13:23:18;;;;;;;3.33;2.90;;;;;;;;;;5063981;28;20429;-78
2021/04/25 13:25:48;;;;;;;4.20;3.80;;;;;;;;;;5067699;28;20438;-77
2021/04/25 13:28:15;;;;;;;3.20;2.90;;;;;;;;;;5064432;28;20441;-78
2021/04/25 13:30:41;;;;;;;3.50;2.67;;;;;;;;;;5065891;28;20440;-78
2021/04/25 13:33:08;;;;;;;3.13;2.83;;;;;;;;;;5064402;28;20445;-78
2021/04/25 13:35:35;;;;;;;8.37;3.77;;;;;;;;;;5065426;28;20453;-78
2021/04/25 13:38:01;;;;;;;3.17;2.87;;;;;;;;;;5064547;28;20449;-78
2021/04/25 13:40:32;;;;;;;4.90;3.33;;;;;;;;;;5066821;28;20469;-79
2021/04/25 13:42:59;;;;;;;3.80;3.40;;;;;;;;;;5066201;28;20473;-78
2021/04/25 13:45:25;;;;;;;4.10;3.63;;;;;;;;;;5063971;28;20473;-78
2021/04/25 13:47:51;;;;;;;3.10;2.80;;;;;;;;;;5063324;28;20446;-77
2021/04/25 13:50:19;;;;;;;3.73;3.20;;;;;;;;;;5063447;28;20548;-79
2021/04/25 13:52:45;;;;;;;3.90;3.03;;;;;;;;;;5067012;28;20469;-78
2021/04/25 13:55:11;;;;;;;3.53;2.73;;;;;;;;;;5075257;28;20441;-77
2021/04/25 13:57:37;;;;;;;5.10;3.07;;;;;;;;;;5076191;28;20533;-78
2021/04/25 14:00:08;;;;;;;4.57;3.17;;;;;;;;;;5064078;28;20984;-78
2021/04/25 14:02:35;;;;;;;4.53;3.30;;;;;;;;;;5063828;28;20531;-78
2021/04/25 14:05:01;;;;;;;3.90;3.30;;;;;;;;;;5065141;28;20460;-78
2021/04/25 14:07:27;;;;;;;3.43;2.67;;;;;;;;;;5064087;28;20447;-78
2021/04/25 14:09:53;;;;;;;3.00;2.80;;;;;;;;;;5065822;28;20531;-78
2021/04/25 14:12:19;;;;;;;4.00;2.70;;;;;;;;;;5066279;28;20643;-79
2021/04/25 14:14:45;;;;;;;4.67;2.90;;;;;;;;;;5066307;28;20457;-78
2021/04/25 14:17:11;;;;;;;7.20;3.50;;;;;;;;;;5060953;28;20504;-79
2021/04/25 14:19:37;;;;;;;5.10;3.17;;;;;;;;;;5063334;28;20536;-78
2021/04/25 14:22:04;;;;;;;3.17;2.50;;;;;;;;;;5064944;28;20490;-78
2021/04/25 14:24:30;;;;;;;2.90;2.43;;;;;;;;;;5064017;28;20588;-77
2021/04/25 14:26:56;;;;;;;2.63;2.43;;;;;;;;;;5064153;28;20453;-77
2021/04/25 14:29:22;;;;;;;2.77;2.30;;;;;;;;;;5062631;28;20441;-78
2021/04/25 14:31:49;;;;;;;2.80;2.57;;;;;;;;;;5064884;28;20441;-78
2021/04/25 14:34:16;;;;;;;5.80;2.87;;;;;;;;;;5064508;28;20536;-78
2021/04/25 14:36:42;;;;;;;2.87;2.67;;;;;;;;;;5063397;28;20477;-78
2021/04/25 14:39:08;;;;;;;4.97;3.23;;;;;;;;;;5063878;28;20468;-78
2021/04/25 14:41:34;;;;;;;4.37;2.77;;;;;;;;;;5062880;28;21250;-78
2021/04/25 14:44:05;;;;;;;4.87;2.80;;;;;;;;;;5063933;28;20896;-77
2021/04/25 14:46:31;;;;;;;3.07;2.77;;;;;;;;;;5064301;28;20434;-77
2021/04/25 14:48:57;;;;;;;3.97;2.77;;;;;;;;;;5062925;28;20450;-78
2021/04/25 14:51:25;;;;;;;4.10;2.57;;;;;;;;;;5063907;28;21008;-78
2021/04/25 14:53:51;;;;;;;3.60;2.57;;;;;;;;;;5064694;28;20957;-78
2021/04/25 14:56:17;;;;;;;3.00;2.70;;;;;;;;;;5063951;28;20438;-78
2021/04/25 14:58:44;;;;;;;2.77;2.43;;;;;;;;;;5071460;28;20502;-79
2021/04/25 15:01:10;;;;;;;2.70;2.17;;;;;;;;;;5067708;28;20532;-78
2021/04/25 15:03:36;;;;;;;5.43;2.50;;;;;;;;;;5066169;28;20446;-79
2021/04/25 15:06:03;;;;;;;9.30;2.80;;;;;;;;;;5068372;28;20450;-78
2021/04/25 15:08:29;;;;;;;4.53;2.50;;;;;;;;;;5067090;28;20542;-78
2021/04/25 15:10:55;;;;;;;2.53;2.33;;;;;;;;;;5068636;28;20469;-78
2021/04/25 15:13:21;;;;;;;3.80;2.33;;;;;;;;;;5065547;28;20499;-79
2021/04/25 15:15:47;;;;;;;4.07;2.97;;;;;;;;;;5067041;28;20446;-79
2021/04/25 15:18:13;;;;;;;3.57;2.53;;;;;;;;;;5065042;28;20446;-79
2021/04/25 15:20:39;;;;;;;10.60;2.40;;;;;;;;;;5069362;28;20473;-78
2021/04/25 15:23:06;;;;;;;3.63;2.27;;;;;;;;;;5066813;28;20442;-79
2021/04/25 15:25:35;;;;;;;4.50;2.50;;;;;;;;;;5067385;28;20446;-78
2021/04/25 15:28:01;;;;;;;3.13;2.70;;;;;;;;;;5066626;28;20477;-79
2021/04/25 15:30:30;;;;;;;2.40;2.10;;;;;;;;;;5067056;28;20828;-78
2021/04/25 15:32:56;;;;;;;3.23;3.00;;;;;;;;;;5063463;28;20495;-78
2021/04/25 15:35:23;;;;;;;6.17;2.30;;;;;;;;;;5069669;28;20442;-78
2021/04/25 15:37:50;;;;;;;4.37;1.90;;;;;;;;;;5080577;28;20475;-77
2021/04/25 15:40:18;;;;;;;3.67;2.30;;;;;;;;;;5076675;28;20984;-77
2021/04/25 15:42:44;;;;;;;3.70;2.93;;;;;;;;;;5079965;28;20799;-77
2021/04/25 15:45:16;;;;;;;3.27;2.13;;;;;;;;;;5076459;28;20561;-77
2021/04/25 15:47:43;;;;;;;2.93;2.43;;;;;;;;;;5086079;28;20445;-78
2021/04/25 15:50:09;;;;;;;3.03;2.60;;;;;;;;;;5081062;28;21586;-78
2021/04/25 15:52:35;;;;;;;2.70;2.17;;;;;;;;;;5079636;28;20955;-78
2021/04/25 15:55:02;;;;;;;2.20;2.00;;;;;;;;;;5071978;28;20438;-78
2021/04/25 15:57:28;;;;;;;4.53;2.57;;;;;;;;;;5075825;28;20443;-77
2021/04/25 15:59:54;;;;;;;2.30;1.80;;;;;;;;;;5088140;28;20558;-76
2021/04/25 16:02:20;;;;;;;3.80;2.50;;;;;;;;;;5084609;28;20485;-79
2021/04/25 16:04:46;;;;;;;4.93;2.53;;;;;;;;;;5086464;28;20535;-77
2021/04/25 16:07:16;;;;;;;2.90;2.33;;;;;;;;;;5082564;28;20794;-79
2021/04/25 16:09:42;;;;;;;3.50;2.17;;;;;;;;;;5084276;28;20502;-76
2021/04/25 16:12:08;;;;;;;2.90;2.60;;;;;;;;;;5093341;28;20480;-78
2021/04/25 16:14:34;;;;;;;2.33;1.97;;;;;;;;;;5081718;28;20445;-77
2021/04/25 16:17:00;;;;;;;8.63;3.13;;;;;;;;;;5088348;28;20445;-79
2021/04/25 16:19:26;;;;;;;4.17;3.00;;;;;;;;;;5080301;28;20452;-79
2021/04/25 16:21:52;;;;;;;2.93;2.20;;;;;;;;;;5082436;28;20480;-79
2021/04/25 16:24:18;;;;;;;2.27;2.07;;;;;;;;;;5084625;28;20443;-79
2021/04/25 16:26:44;;;;;;;2.93;2.20;;;;;;;;;;5081431;28;20449;-79
2021/04/25 16:29:10;;;;;;;3.63;2.50;;;;;;;;;;5081446;28;20856;-79
2021/04/25 16:31:36;;;;;;;9.20;5.17;;;;;;;;;;5083016;28;20442;-78
2021/04/25 16:34:02;;;;;;;7.53;3.97;;;;;;;;;;5083582;28;20466;-78
2021/04/25 16:36:28;;;;;;;6.73;3.43;;;;;;;;;;5082226;28;20468;-77
2021/04/25 16:38:55;;;;;;;3.70;2.57;;;;;;;;;;5084344;28;20429;-77
2021/04/25 16:41:23;;;;;;;2.43;2.23;;;;;;;;;;5077515;28;20492;-77
2021/04/25 16:43:49;;;;;;;3.23;2.40;;;;;;;;;;5082585;28;20440;-78
2021/04/25 16:46:16;;;;;;;2.47;1.87;;;;;;;;;;5084758;28;20466;-78
2021/04/25 16:48:42;;;;;;;6.40;2.10;;;;;;;;;;5084450;28;20527;-78
2021/04/25 16:51:08;;;;;;;6.77;3.20;;;;;;;;;;5079829;28;20536;-77
2021/04/25 16:53:34;;;;;;;4.50;2.67;;;;;;;;;;5078383;28;20439;-77
2021/04/25 16:56:03;;;;;;;7.33;2.13;;;;;;;;;;5088009;28;20441;-78
2021/04/25 16:58:30;;;;;;;3.33;2.30;;;;;;;;;;5081343;28;20472;-78
2021/04/25 17:00:57;;;;;;;3.07;2.23;;;;;;;;;;5084663;28;21914;-80
2021/04/25 17:03:23;;;;;;;3.70;2.77;;;;;;;;;;5081679;28;20458;-78
2021/04/25 17:05:49;;;;;;;3.20;2.43;;;;;;;;;;5076287;28;20445;-78
2021/04/25 17:08:16;;;;;;;5.43;3.10;;;;;;;;;;5079954;28;20909;-78
2021/04/25 17:10:42;;;;;;;5.80;2.40;;;;;;;;;;5079108;28;20491;-79
2021/04/25 17:13:08;;;;;;;2.97;2.20;;;;;;;;;;5084014;28;20792;-79
2021/04/25 17:15:34;;;;;;;4.83;2.57;;;;;;;;;;5081762;28;20545;-77
2021/04/25 17:18:01;;;;;;;4.00;2.87;;;;;;;;;;5084625;28;20433;-78
2021/04/25 17:20:27;;;;;;;5.80;2.30;;;;;;;;;;5078413;28;20442;-80
2021/04/25 17:22:55;;;;;;;3.17;2.87;;;;;;;;;;5081322;28;20533;-76
2021/04/25 17:25:21;;;;;;;6.90;3.00;;;;;;;;;;5085725;28;20436;-77
2021/04/25 17:27:48;;;;;;;4.10;2.40;;;;;;;;;;5078970;28;20459;-77
2021/04/25 17:30:17;;;;;;;3.80;2.87;;;;;;;;;;5083103;28;20448;-77
2021/04/25 17:32:43;;;;;;;4.20;2.60;;;;;;;;;;5085288;28;20452;-78
2021/04/25 17:35:10;;;;;;;2.73;2.53;;;;;;;;;;5083960;28;20808;-79
2021/04/25 17:37:37;;;;;;;3.93;2.23;;;;;;;;;;5079814;28;20469;-78
2021/04/25 17:40:04;;;;;;;3.53;2.83;;;;;;;;;;5074746;28;20434;-77
2021/04/25 17:42:30;;;;;;;4.30;2.17;;;;;;;;;;5079234;28;21003;-78
2021/04/25 17:44:56;;;;;;;3.70;2.70;;;;;;;;;;5070868;28;20555;-77
2021/04/25 17:47:23;;;;;;;3.00;2.10;;;;;;;;;;5082613;28;20978;-79
2021/04/25 17:49:49;;;;;;;2.13;1.93;;;;;;;;;;5070914;28;20470;-79
2021/04/25 17:52:15;;;;;;;2.20;2.00;;;;;;;;;;5068197;28;20486;-80
2021/04/25 17:54:41;;;;;;;2.80;2.50;;;;;;;;;;5069480;28;20873;-77
2021/04/25 17:57:07;;;;;;;2.60;2.23;;;;;;;;;;5067062;28;20461;-77
2021/04/25 17:59:33;;;;;;;3.23;2.47;;;;;;;;;;5067058;28;20468;-78
2021/04/25 18:01:59;;;;;;;4.23;2.40;;;;;;;;;;5066559;28;20477;-76
2021/04/25 18:04:27;;;;;;;2.57;2.17;;;;;;;;;;5069252;28;21289;-79
2021/04/25 18:06:53;;;;;;;3.70;2.60;;;;;;;;;;5064436;28;20445;-79
2021/04/25 18:09:19;;;;;;;3.40;2.63;;;;;;;;;;5067015;28;21135;-78
2021/04/25 18:11:45;;;;;;;3.10;2.27;;;;;;;;;;5067351;28;20554;-77
2021/04/25 18:14:12;;;;;;;6.37;2.50;;;;;;;;;;5069200;28;20446;-78
2021/04/25 18:16:38;;;;;;;3.23;2.43;;;;;;;;;;5069878;28;20441;-78
2021/04/25 18:19:04;;;;;;;3.60;2.67;;;;;;;;;;5071923;28;20993;-77
2021/04/25 18:21:31;;;;;;;6.67;2.50;;;;;;;;;;5088398;28;20485;-77
2021/04/25 18:23:57;;;;;;;2.43;2.23;;;;;;;;;;5083215;28;20548;-77
2021/04/25 18:26:23;;;;;;;4.83;2.40;;;;;;;;;;5088016;28;20536;-78
2021/04/25 18:28:49;;;;;;;3.97;2.10;;;;;;;;;;5086823;28;20786;-78
2021/04/25 18:31:16;;;;;;;3.00;2.70;;;;;;;;;;5080887;28;20798;-78
2021/04/25 18:33:43;;;;;;;4.60;2.77;;;;;;;;;;5073905;28;20532;-78
2021/04/25 18:36:09;;;;;;;3.10;2.80;;;;;;;;;;5087036;28;20615;-78
2021/04/25 18:38:35;;;;;;;5.10;2.60;;;;;;;;;;5087400;28;20994;-77
2021/04/25 18:41:05;;;;;;;3.43;2.80;;;;;;;;;;5088910;28;20584;-78
2021/04/25 18:43:32;;;;;;;2.83;2.17;;;;;;;;;;5081029;28;20444;-77
2021/04/25 18:45:58;;;;;;;4.03;3.00;;;;;;;;;;5070987;28;20454;-76
2021/04/25 18:48:24;;;;;;;3.40;3.07;;;;;;;;;;5071843;28;20445;-76
2021/04/25 18:50:50;;;;;;;3.87;2.90;;;;;;;;;;5069595;28;20440;-76
2021/04/25 18:53:16;;;;;;;4.77;2.90;;;;;;;;;;5070899;28;20438;-76
2021/04/25 18:55:43;;;;;;;5.77;2.60;;;;;;;;;;5072551;28;20437;-78
2021/04/25 18:58:10;;;;;;;4.93;2.90;;;;;;;;;;5071660;28;20441;-77
2021/04/25 19:01:02;;;;;;;3.07;2.73;;;;;;;;;;5069299;28;20792;-77
2021/04/25 19:03:28;;;;;;;3.30;2.50;;;;;;;;;;5069247;28;20442;-76
2021/04/25 19:05:54;;;;;;;4.60;2.63;;;;;;;;;;5069723;28;20433;-76
2021/04/25 19:08:22;;;;;;;3.60;2.80;;;;;;;;;;5069816;28;20445;-78
2021/04/25 19:10:49;;;;;;;4.40;2.43;;;;;;;;;;5068921;28;20478;-76
2021/04/25 19:13:15;;;;;;;6.57;2.17;;;;;;;;;;5069567;28;20442;-77
2021/04/25 19:15:50;;;;;;;7.20;2.93;;;;;;;;;;5070801;28;20445;-76
2021/04/25 19:18:17;;;;;;;11.50;2.70;;;;;;;;;;5074527;28;20505;-76
2021/04/25 19:20:43;;;;;;;7.17;3.70;;;;;;;;;;5065789;28;21002;-77
2021/04/25 19:23:09;;;;;;;5.93;2.70;;;;;;;;;;5068220;28;20513;-77
2021/04/25 19:25:35;;;;;;;6.33;3.00;;;;;;;;;;5066292;28;20506;-78
2021/04/25 19:28:01;;;;;;;5.47;2.90;;;;;;;;;;5068554;28;20457;-76
2021/04/25 19:30:36;;;;;;;5.97;3.03;;;;;;;;;;5063225;28;20807;-76
2021/04/25 19:33:03;;;;;;;5.37;3.17;;;;;;;;;;5066370;28;20473;-77
2021/04/25 19:35:29;;;;;;;6.07;2.60;;;;;;;;;;5066069;28;20824;-78
2021/04/25 19:37:55;;;;;;;6.17;2.53;;;;;;;;;;5063898;28;20493;-77
2021/04/25 19:40:24;;;;;;;12.63;3.03;;;;;;;;;;5064301;28;20436;-76
2021/04/25 19:42:51;;;;;;;14.70;3.57;;;;;;;;;;5061547;28;20445;-76
2021/04/25 19:45:28;;;;;;;8.43;4.00;;;;;;;;;;5082248;28;20820;-78
2021/04/25 19:47:54;;;;;;;5.77;3.50;;;;;;;;;;5063804;28;20441;-76
2021/04/25 19:50:21;;;;;;;6.60;3.30;;;;;;;;;;5065283;28;20814;-77
2021/04/25 19:52:48;;;;;;;3.97;2.40;;;;;;;;;;5072378;28;20448;-76
2021/04/25 19:55:15;;;;;;;2.63;2.23;;;;;;;;;;5071488;28;20434;-77
2021/04/25 19:57:41;;;;;;;3.40;2.40;;;;;;;;;;5071241;28;20437;-77
2021/04/25 20:00:09;;;;;;;2.93;2.60;;;;;;;;;;5078729;28;20441;-77
2021/04/25 20:02:36;;;;;;;2.40;2.20;;;;;;;;;;5078245;28;20496;-77
2021/04/25 20:05:05;;;;;;;3.07;2.73;;;;;;;;;;5070472;28;20497;-77
2021/04/25 20:07:31;;;;;;;3.67;2.40;;;;;;;;;;5061524;28;20449;-77
2021/04/25 20:09:57;;;;;;;3.87;2.57;;;;;;;;;;5066003;28;20441;-77
2021/04/25 20:12:23;;;;;;;3.20;2.30;;;;;;;;;;5066812;28;20485;-76
2021/04/25 20:14:49;;;;;;;5.80;3.20;;;;;;;;;;5065778;28;20510;-77
2021/04/25 20:17:15;;;;;;;4.07;2.93;;;;;;;;;;5065004;28;20968;-77
2021/04/25 20:19:43;;;;;;;4.47;2.60;;;;;;;;;;5063171;28;20456;-78
2021/04/25 20:22:09;;;;;;;3.43;2.37;;;;;;;;;;5067745;28;20491;-76
2021/04/25 20:24:35;;;;;;;5.57;3.10;;;;;;;;;;5079944;28;20446;-76
2021/04/25 20:27:01;;;;;;;3.10;2.77;;;;;;;;;;5074365;28;20492;-76
2021/04/25 20:29:27;;;;;;;2.60;2.23;;;;;;;;;;5075067;28;21012;-77
2021/04/25 20:31:53;;;;;;;4.00;2.20;;;;;;;;;;5077749;28;20487;-77
2021/04/25 20:34:19;;;;;;;2.83;2.57;;;;;;;;;;5069794;28;20532;-77
2021/04/25 20:36:45;;;;;;;3.13;2.40;;;;;;;;;;5061939;28;20445;-76
2021/04/25 20:39:11;;;;;;;6.90;2.70;;;;;;;;;;5062337;28;20435;-77
2021/04/25 20:41:37;;;;;;;2.30;2.10;;;;;;;;;;5062650;28;20543;-77
2021/04/25 20:44:03;;;;;;;5.60;2.87;;;;;;;;;;5063896;28;20874;-78
2021/04/25 20:46:29;;;;;;;3.50;2.20;;;;;;;;;;5064285;28;20444;-77
2021/04/25 20:48:56;;;;;;;6.47;2.73;;;;;;;;;;5067716;28;20470;-76
2021/04/25 20:51:22;;;;;;;7.00;2.50;;;;;;;;;;5061707;28;20849;-79
2021/04/25 20:53:48;;;;;;;8.63;3.00;;;;;;;;;;5062440;28;20445;-77
2021/04/25 20:56:15;;;;;;;4.30;2.47;;;;;;;;;;5061315;28;20509;-78
2021/04/25 20:58:42;;;;;;;4.00;2.67;;;;;;;;;;5058873;28;20444;-77
2021/04/25 21:01:08;;;;;;;6.03;2.60;;;;;;;;;;5062521;28;20575;-77
2021/04/25 21:03:35;;;;;;;6.73;3.40;;;;;;;;;;5066489;28;20590;-77
2021/04/25 21:06:01;;;;;;;3.90;2.97;;;;;;;;;;5059316;28;20512;-78
2021/04/25 21:08:27;;;;;;;5.70;2.77;;;;;;;;;;5065075;28;20436;-78
2021/04/25 21:10:53;;;;;;;2.93;2.50;;;;;;;;;;5062524;28;20507;-79
2021/04/25 21:13:20;;;;;;;4.30;2.17;;;;;;;;;;5062744;28;20530;-77
2021/04/25 21:15:46;;;;;;;4.90;3.70;;;;;;;;;;5062727;28;20966;-76
2021/04/25 21:18:12;;;;;;;3.40;2.60;;;;;;;;;;5058456;28;20514;-76
2021/04/25 21:20:38;;;;;;;3.70;2.53;;;;;;;;;;5064090;28;20449;-76
2021/04/25 21:23:04;;;;;;;5.40;2.50;;;;;;;;;;5066028;28;20459;-77
2021/04/25 21:25:30;;;;;;;4.10;2.27;;;;;;;;;;5077326;28;20836;-75
2021/04/25 21:28:07;;;;;;;3.80;2.80;;;;;;;;;;5082247;28;20789;-80
2021/04/25 21:30:33;;;;;;;6.87;2.83;;;;;;;;;;5077686;28;20438;-77
2021/04/25 21:32:59;;;;;;;3.50;2.33;;;;;;;;;;5074293;28;20870;-77
2021/04/25 21:35:25;;;;;;;2.50;2.20;;;;;;;;;;5080274;28;20440;-76
2021/04/25 21:37:51;;;;;;;5.03;2.40;;;;;;;;;;5072528;28;20424;-78
2021/04/25 21:40:19;;;;;;;4.30;3.10;;;;;;;;;;5087438;28;20467;-77
2021/04/25 21:42:45;;;;;;;5.47;3.27;;;;;;;;;;5075216;28;20468;-77
2021/04/25 21:45:11;;;;;;;6.73;2.10;;;;;;;;;;5072715;28;20410;-78
2021/04/25 21:47:37;;;;;;;4.10;2.67;;;;;;;;;;5072196;28;20924;-78
2021/04/25 21:50:04;;;;;;;7.30;3.27;;;;;;;;;;5071176;28;20465;-76
2021/04/25 21:52:30;;;;;;;6.47;3.30;;;;;;;;;;5071630;28;20412;-77
2021/04/25 21:54:56;;;;;;;3.63;3.07;;;;;;;;;;5072288;28;20420;-78
2021/04/25 21:57:22;;;;;;;4.03;2.47;;;;;;;;;;5072460;28;20760;-77
2021/04/25 21:59:48;;;;;;;5.20;2.73;;;;;;;;;;5072201;28;20407;-76
2021/04/25 22:02:14;;;;;;;6.07;2.53;;;;;;;;;;5072344;28;20470;-78
2021/04/25 22:04:40;;;;;;;2.23;2.03;;;;;;;;;;5072234;28;20414;-77
2021/04/25 22:07:06;;;;;;;5.50;2.80;;;;;;;;;;5071629;28;20426;-77
2021/04/25 22:09:32;;;;;;;3.87;2.40;;;;;;;;;;5072023;28;20450;-77
2021/04/25 22:11:59;;;;;;;3.00;1.97;;;;;;;;;;5071739;28;20644;-77
2021/04/25 22:14:25;;;;;;;3.80;2.30;;;;;;;;;;5072148;28;20711;-77
2021/04/25 22:16:51;;;;;;;2.27;2.00;;;;;;;;;;5072180;28;20422;-76
2021/04/25 22:19:18;;;;;;;3.60;2.53;;;;;;;;;;5072027;28;20416;-77
2021/04/25 22:24:48;;;;;;;4.43;2.57;;;;;;;;;;5072150;28;20824;-78
2021/04/25 22:27:14;;;;;;;5.20;3.27;;;;;;;;;;5071935;28;20408;-77
2021/04/25 22:29:40;;;;;;;7.50;2.40;;;;;;;;;;5071818;28;20430;-77
2021/04/25 22:32:06;;;;;;;6.30;2.40;;;;;;;;;;5071986;28;20447;-78
2021/04/25 22:34:32;;;;;;;3.07;2.30;;;;;;;;;;5071858;28;20426;-77
2021/04/25 22:40:01;;;;;;;7.87;2.90;;;;;;;;;;5072182;28;20814;-77
2021/04/25 22:42:27;;;;;;;2.23;2.00;;;;;;;;;;5072201;28;20505;-77
2021/04/25 22:44:53;;;;;;;2.97;2.60;;;;;;;;;;5072230;28;20434;-77
2021/04/25 22:47:19;;;;;;;4.27;2.33;;;;;;;;;;5071887;28;20410;-76
2021/04/25 22:49:45;;;;;;;4.03;2.73;;;;;;;;;;5071677;28;20435;-76
2021/04/25 22:52:11;;;;;;;5.97;2.73;;;;;;;;;;5071752;28;20740;-77
2021/04/25 22:54:37;;;;;;;2.40;2.00;;;;;;;;;;5071662;28;20536;-77
2021/04/25 22:57:03;;;;;;;4.47;2.40;;;;;;;;;;5071742;28;20411;-77
2021/04/25 22:59:29;;;;;;;2.83;1.73;;;;;;;;;;5071401;28;20411;-77
2021/04/25 23:01:56;;;;;;;3.10;2.07;;;;;;;;;;5071588;28;20477;-77
2021/04/25 23:04:22;;;;;;;2.27;2.07;;;;;;;;;;5071721;28;20406;-77
2021/04/25 23:09:52;;;;;;;3.63;2.10;;;;;;;;;;5071802;28;20455;-78
2021/04/25 23:12:17;;;;;;;1.83;1.70;;;;;;;;;;5071503;28;20568;-77
2021/04/25 23:14:43;;;;;;;3.30;2.17;;;;;;;;;;5071663;28;20419;-77
2021/04/25 23:17:10;;;;;;;2.47;2.27;;;;;;;;;;5071411;28;20495;-77
2021/04/25 23:19:36;;;;;;;1.80;1.70;;;;;;;;;;5074285;28;20457;-76
2021/04/25 23:25:06;;;;;;;2.93;2.07;;;;;;;;;;5075178;28;20778;-76
2021/04/25 23:27:32;;;;;;;2.20;1.80;;;;;;;;;;5075215;28;20413;-77
2021/04/25 23:29:58;;;;;;;3.17;2.20;;;;;;;;;;5074358;28;20460;-77
2021/04/25 23:32:24;;;;;;;2.70;1.90;;;;;;;;;;5075099;28;20410;-77
2021/04/25 23:34:50;;;;;;;2.07;1.87;;;;;;;;;;5076240;28;20411;-78
2021/04/25 23:40:21;;;;;;;2.77;2.53;;;;;;;;;;5079644;28;20481;-76
2021/04/25 23:42:47;;;;;;;7.10;2.50;;;;;;;;;;5075389;28;20470;-77
2021/04/25 23:45:20;;;;;;;3.70;2.60;;;;;;;;;;5074558;28;20436;-77
2021/04/25 23:47:46;;;;;;;4.70;2.50;;;;;;;;;;5074369;28;20422;-77
2021/04/25 23:50:12;;;;;;;4.37;2.10;;;;;;;;;;5074310;28;20722;-76
2021/04/25 23:52:38;;;;;;;5.30;2.20;;;;;;;;;;5073822;28;20904;-76
2021/04/25 23:55:05;;;;;;;4.70;2.30;;;;;;;;;;5074645;28;20414;-77
2021/04/25 23:57:31;;;;;;;4.20;2.03;;;;;;;;;;5074517;28;20555;-77
2021/04/25 23:59:57;;;;;;;6.57;2.80;;;;;;;;;;5074090;28;20467;-76
